createdAt,value
2022-12-29T00:00:21.328Z,29.50
2022-12-29T00:02:48.068Z,27.51
2022-12-29T00:05:15.441Z,27.77
2022-12-29T00:07:42.251Z,28.91
2022-12-29T00:10:09.248Z,29.43
2022-12-29T00:12:54.631Z,28.38
2022-12-29T00:15:40.745Z,29.09
2022-12-29T00:18:08.864Z,29.82
2022-12-29T00:20:56.505Z,30.59
2022-12-29T00:23:42.403Z,28.28
2022-12-29T00:26:34.794Z,27.77
2022-12-29T00:29:20.002Z,28.65
2022-12-29T00:32:06.396Z,28.14
2022-12-29T00:34:52.950Z,28.81
2022-12-29T00:37:39.644Z,26.62
2022-12-29T00:40:25.530Z,28.56
2022-12-29T00:43:11.515Z,27.09
2022-12-29T00:45:41.692Z,25.89
2022-12-29T00:48:08.400Z,28.82
2022-12-29T00:50:35.095Z,28.19
2022-12-29T00:53:01.855Z,28.50
2022-12-29T00:55:28.567Z,29.91
2022-12-29T00:57:55.619Z,26.92
2022-12-29T01:00:23.156Z,26.56
2022-12-29T01:02:50.111Z,27.21
2022-12-29T01:05:17.275Z,25.64
2022-12-29T01:07:46.211Z,28.62
2022-12-29T01:10:12.987Z,29.92
2022-12-29T01:12:42.685Z,28.05
2022-12-29T01:15:12.771Z,27.02
2022-12-29T01:17:39.561Z,29.75
2022-12-29T01:20:07.081Z,28.53
2022-12-29T01:22:34.083Z,29.70
2022-12-29T01:25:01.141Z,30.58
2022-12-29T01:27:28.264Z,28.03
2022-12-29T01:29:55.080Z,26.79
2022-12-29T01:32:22.097Z,26.69
2022-12-29T01:34:48.777Z,28.28
2022-12-29T01:37:15.524Z,30.20
2022-12-29T01:39:42.405Z,27.04
2022-12-29T01:42:20.495Z,30.29
2022-12-29T01:44:53.467Z,28.65
2022-12-29T01:47:43.271Z,28.75
2022-12-29T01:50:19.767Z,27.56
2022-12-29T01:53:01.260Z,28.48
2022-12-29T01:55:32.377Z,29.65
2022-12-29T01:58:02.437Z,29.19
2022-12-29T02:00:31.259Z,29.05
2022-12-29T02:02:58.050Z,30.26
2022-12-29T02:05:37.501Z,31.08
2022-12-29T02:08:04.937Z,27.86
2022-12-29T02:10:36.135Z,27.41
2022-12-29T02:13:03.535Z,26.98
2022-12-29T02:16:09.471Z,28.96
2022-12-29T02:18:41.301Z,28.26
2022-12-29T02:21:20.865Z,26.16
2022-12-29T02:24:05.888Z,27.14
2022-12-29T02:27:07.523Z,29.63
2022-12-29T02:29:40.232Z,28.46
2022-12-29T02:32:17.686Z,29.06
2022-12-29T02:35:04.943Z,28.34
2022-12-29T02:37:50.189Z,28.55
2022-12-29T02:40:47.197Z,27.75
2022-12-29T02:43:32.677Z,28.87
2022-12-29T02:46:22.905Z,29.86
2022-12-29T02:49:00.485Z,26.92
2022-12-29T02:52:08.866Z,29.29
2022-12-29T02:54:42.741Z,32.34
2022-12-29T02:57:22.824Z,30.79
2022-12-29T03:00:06.032Z,28.48
2022-12-29T03:02:45.356Z,28.33
2022-12-29T03:05:29.456Z,28.14
2022-12-29T03:08:29.584Z,29.77
2022-12-29T03:11:01.578Z,29.54
2022-12-29T03:14:03.192Z,30.36
2022-12-29T03:16:44.420Z,28.29
2022-12-29T03:19:19.163Z,31.68
2022-12-29T03:22:14.163Z,30.60
2022-12-29T03:24:48.783Z,33.52
2022-12-29T03:27:24.293Z,29.90
2022-12-29T03:29:55.256Z,30.58
2022-12-29T03:32:27.752Z,29.60
2022-12-29T03:34:56.067Z,27.08
2022-12-29T03:37:27.574Z,28.14
2022-12-29T03:39:54.595Z,27.76
2022-12-29T03:42:24.889Z,28.32
2022-12-29T03:44:56.334Z,27.69
2022-12-29T03:47:25.243Z,26.22
2022-12-29T03:49:53.298Z,27.79
2022-12-29T03:52:20.432Z,26.38
2022-12-29T03:54:48.243Z,27.97
2022-12-29T03:57:15.043Z,27.22
2022-12-29T03:59:52.276Z,28.96
2022-12-29T04:02:20.074Z,29.52
2022-12-29T04:04:47.727Z,27.91
2022-12-29T04:07:14.466Z,27.95
2022-12-29T04:09:42.474Z,28.24
2022-12-29T04:12:12.548Z,30.38
2022-12-29T04:14:40.015Z,30.06
2022-12-29T04:17:07.238Z,29.77
2022-12-29T04:19:34.900Z,27.89
2022-12-29T04:22:01.908Z,27.05
2022-12-29T04:24:29.011Z,28.50
2022-12-29T04:26:55.840Z,30.44
2022-12-29T04:29:42.350Z,29.88
2022-12-29T04:32:29.454Z,27.30
2022-12-29T04:34:56.755Z,27.47
2022-12-29T04:37:23.870Z,29.45
2022-12-29T04:39:50.656Z,26.41
2022-12-29T04:42:17.932Z,26.67
2022-12-29T04:44:45.659Z,27.45
2022-12-29T04:47:18.297Z,29.59
2022-12-29T04:49:58.361Z,31.71
2022-12-29T04:52:37.847Z,29.98
2022-12-29T04:55:06.936Z,27.92
2022-12-29T04:57:34.589Z,28.86
2022-12-29T05:00:02.478Z,29.30
2022-12-29T05:02:29.429Z,26.38
2022-12-29T05:04:57.250Z,26.13
2022-12-29T05:07:26.078Z,26.23
2022-12-29T05:09:54.153Z,27.27
2022-12-29T05:12:21.013Z,26.67
2022-12-29T05:14:58.873Z,26.98
2022-12-29T05:17:25.740Z,27.03
2022-12-29T05:19:54.229Z,25.98
2022-12-29T05:22:22.767Z,26.81
2022-12-29T05:24:50.476Z,26.35
2022-12-29T05:27:17.481Z,26.96
2022-12-29T05:30:02.599Z,25.91
2022-12-29T05:32:29.665Z,25.99
2022-12-29T05:34:57.328Z,28.37
2022-12-29T05:37:25.625Z,27.58
2022-12-29T05:39:52.363Z,25.70
2022-12-29T05:42:19.248Z,25.49
2022-12-29T05:45:10.625Z,26.33
2022-12-29T05:47:50.902Z,26.59
2022-12-29T05:50:43.917Z,27.39
2022-12-29T05:53:14.419Z,24.68
2022-12-29T05:55:46.956Z,27.02
2022-12-29T05:58:17.219Z,25.62
2022-12-29T06:00:45.126Z,26.01
2022-12-29T06:03:12.508Z,24.09
2022-12-29T06:05:39.658Z,24.45
2022-12-29T06:08:06.818Z,25.54
2022-12-29T06:10:34.570Z,27.75
2022-12-29T06:13:07.249Z,25.24
2022-12-29T06:15:37.292Z,26.06
2022-12-29T06:18:06.800Z,27.39
2022-12-29T06:20:34.672Z,25.67
2022-12-29T06:23:04.811Z,25.23
2022-12-29T06:25:33.309Z,27.14
2022-12-29T06:28:00.860Z,24.83
2022-12-29T06:30:27.650Z,24.73
2022-12-29T06:32:55.956Z,25.61
2022-12-29T06:35:24.979Z,28.14
2022-12-29T06:37:52.398Z,27.63
2022-12-29T06:40:20.211Z,26.12
2022-12-29T06:43:16.143Z,24.73
2022-12-29T06:46:00.680Z,24.57
2022-12-29T06:48:27.378Z,27.77
2022-12-29T06:50:55.069Z,26.37
2022-12-29T06:53:21.798Z,24.75
2022-12-29T06:55:48.578Z,27.95
2022-12-29T06:58:15.613Z,25.51
2022-12-29T07:00:42.515Z,24.81
2022-12-29T07:03:10.142Z,23.77
2022-12-29T07:05:36.858Z,23.26
2022-12-29T07:08:03.616Z,27.07
2022-12-29T07:10:30.585Z,26.02
2022-12-29T07:12:57.485Z,23.94
2022-12-29T07:15:25.380Z,27.57
2022-12-29T07:17:52.267Z,26.97
2022-12-29T07:20:26.240Z,25.38
2022-12-29T07:22:53.664Z,25.88
2022-12-29T07:25:20.383Z,26.55
2022-12-29T07:27:47.106Z,23.49
2022-12-29T07:30:14.073Z,27.58
2022-12-29T07:32:42.116Z,24.79
2022-12-29T07:35:09.005Z,24.80
2022-12-29T07:37:37.037Z,24.95
2022-12-29T07:40:04.758Z,25.57
2022-12-29T07:42:32.292Z,26.13
2022-12-29T07:45:00.039Z,23.34
2022-12-29T07:47:34.139Z,25.81
2022-12-29T07:50:01.341Z,23.97
2022-12-29T07:52:28.083Z,24.42
2022-12-29T07:54:55.567Z,26.48
2022-12-29T07:57:26.463Z,27.34
2022-12-29T07:59:57.140Z,29.04
2022-12-29T08:02:24.041Z,26.73
2022-12-29T08:04:51.576Z,24.55
2022-12-29T08:07:18.286Z,24.58
2022-12-29T08:09:45.023Z,24.59
2022-12-29T08:12:12.284Z,23.51
2022-12-29T08:14:40.661Z,22.24
2022-12-29T08:17:07.349Z,22.78
2022-12-29T08:19:34.169Z,22.96
2022-12-29T08:22:01.280Z,20.09
2022-12-29T08:24:28.079Z,23.85
2022-12-29T08:26:55.920Z,23.53
2022-12-29T08:29:22.848Z,25.26
2022-12-29T08:31:49.711Z,23.27
2022-12-29T08:34:16.517Z,21.97
2022-12-29T08:36:44.172Z,20.00
2022-12-29T08:39:12.117Z,21.59
2022-12-29T08:41:39.059Z,21.86
2022-12-29T08:44:06.458Z,22.42
2022-12-29T08:46:33.303Z,20.68
2022-12-29T08:49:00.286Z,22.87
2022-12-29T08:51:27.452Z,25.81
2022-12-29T08:53:54.198Z,23.95
2022-12-29T08:56:21.789Z,25.55
2022-12-29T08:58:52.753Z,26.02
2022-12-29T09:01:21.325Z,23.59
2022-12-29T09:04:18.937Z,23.35
2022-12-29T09:06:40.131Z,22.85
2022-12-29T09:09:08.147Z,24.49
2022-12-29T09:11:34.885Z,23.91
2022-12-29T09:14:01.843Z,23.76
2022-12-29T09:16:28.834Z,22.10
2022-12-29T09:18:56.272Z,22.33
2022-12-29T09:21:23.082Z,24.23
2022-12-29T09:23:50.128Z,26.22
2022-12-29T09:26:16.980Z,23.86
2022-12-29T09:28:45.507Z,24.77
2022-12-29T09:31:12.965Z,24.55
2022-12-29T09:33:39.822Z,27.08
2022-12-29T09:36:06.949Z,25.63
2022-12-29T09:38:33.724Z,27.31
2022-12-29T09:41:39.600Z,25.14
2022-12-29T09:44:24.796Z,24.62
2022-12-29T09:46:56.821Z,26.39
2022-12-29T09:49:33.231Z,23.25
2022-12-29T09:52:07.436Z,25.50
2022-12-29T09:57:26.917Z,22.79
2022-12-29T10:00:00.957Z,22.05
2022-12-29T10:02:43.264Z,18.69
2022-12-29T10:05:21.342Z,21.86
2022-12-29T10:08:17.780Z,25.00
2022-12-29T10:11:09.008Z,23.96
2022-12-29T10:14:03.677Z,25.41
2022-12-29T10:16:43.332Z,23.16
2022-12-29T10:19:35.399Z,24.15
2022-12-29T10:22:02.294Z,22.13
2022-12-29T10:24:30.513Z,23.02
2022-12-29T10:27:00.346Z,25.33
2022-12-29T10:29:44.195Z,23.67
2022-12-29T10:32:37.877Z,23.59
2022-12-29T10:35:12.388Z,21.54
2022-12-29T10:38:06.776Z,20.18
2022-12-29T10:40:46.411Z,21.07
2022-12-29T10:43:27.839Z,21.58
2022-12-29T10:46:02.267Z,23.31
2022-12-29T10:48:34.737Z,21.86
2022-12-29T10:51:06.066Z,22.01
2022-12-29T10:53:44.751Z,23.81
2022-12-29T10:56:41.405Z,22.55
2022-12-29T10:59:33.977Z,21.68
2022-12-29T11:02:23.366Z,20.92
2022-12-29T11:04:59.581Z,22.54
2022-12-29T11:07:27.996Z,23.57
2022-12-29T11:09:55.128Z,18.90
2022-12-29T11:12:31.732Z,21.38
2022-12-29T11:15:08.613Z,20.48
2022-12-29T11:17:53.259Z,20.89
2022-12-29T11:20:33.648Z,19.49
2022-12-29T11:23:01.071Z,20.31
2022-12-29T11:25:29.465Z,19.87
2022-12-29T11:28:02.364Z,20.54
2022-12-29T11:30:32.001Z,23.72
2022-12-29T11:32:59.581Z,21.81
2022-12-29T11:35:37.434Z,19.85
2022-12-29T11:38:19.784Z,21.87
2022-12-29T11:40:46.495Z,21.30
2022-12-29T11:43:36.373Z,20.79
2022-12-29T11:46:06.707Z,19.92
2022-12-29T11:48:40.752Z,21.83
2022-12-29T11:51:08.817Z,21.46
2022-12-29T11:53:48.623Z,20.76
2022-12-29T11:56:18.344Z,22.18
2022-12-29T11:58:45.235Z,21.65
2022-12-29T12:01:18.529Z,23.02
2022-12-29T12:04:04.773Z,22.13
2022-12-29T12:06:36.185Z,21.44
2022-12-29T12:09:24.249Z,20.58
2022-12-29T12:11:55.624Z,21.49
2022-12-29T12:14:38.309Z,22.42
2022-12-29T12:18:01.236Z,20.58
2022-12-29T12:20:44.555Z,21.38
2022-12-29T12:23:27.087Z,21.79
2022-12-29T12:26:02.625Z,21.91
2022-12-29T12:28:55.113Z,21.16
2022-12-29T12:31:40.360Z,23.85
2022-12-29T12:34:17.557Z,22.97
2022-12-29T12:37:16.441Z,22.54
2022-12-29T12:40:03.960Z,23.29
2022-12-29T12:42:54.631Z,23.65
2022-12-29T12:45:39.852Z,24.12
2022-12-29T12:48:31.288Z,23.46
2022-12-29T12:51:00.689Z,23.91
2022-12-29T12:53:42.353Z,22.62
2022-12-29T12:56:27.412Z,21.02
2022-12-29T12:59:32.264Z,21.29
2022-12-29T13:02:04.222Z,24.59
2022-12-29T13:05:14.242Z,23.20
2022-12-29T13:08:12.139Z,19.57
2022-12-29T13:11:07.289Z,22.97
2022-12-29T13:14:15.356Z,22.68
2022-12-29T13:17:06.236Z,20.17
2022-12-29T13:19:41.951Z,19.46
2022-12-29T13:22:12.616Z,16.53
2022-12-29T13:25:02.657Z,19.72
2022-12-29T13:27:36.893Z,21.00
2022-12-29T13:30:20.495Z,21.77
2022-12-29T13:33:21.337Z,21.23
2022-12-29T13:35:55.608Z,20.67
2022-12-29T13:38:40.155Z,21.34
2022-12-29T13:41:11.126Z,21.65
2022-12-29T13:43:44.356Z,21.66
2022-12-29T13:46:16.918Z,23.63
2022-12-29T13:48:56.400Z,23.69
2022-12-29T13:51:28.299Z,20.15
2022-12-29T13:53:56.091Z,21.50
2022-12-29T13:56:38.850Z,23.18
2022-12-29T13:59:17.575Z,24.80
2022-12-29T14:02:30.054Z,23.51
2022-12-29T14:05:03.409Z,23.00
2022-12-29T14:07:38.740Z,23.84
2022-12-29T14:10:06.674Z,23.12
2022-12-29T14:12:40.891Z,23.93
2022-12-29T14:15:22.357Z,21.91
2022-12-29T14:18:13.079Z,24.09
2022-12-29T14:20:52.994Z,23.25
2022-12-29T14:23:30.975Z,23.98
2022-12-29T14:26:06.450Z,24.02
2022-12-29T14:28:40.175Z,23.42
2022-12-29T14:31:29.802Z,24.01
2022-12-29T14:34:11.545Z,24.79
2022-12-29T14:36:41.183Z,24.37
2022-12-29T14:39:38.269Z,23.44
2022-12-29T14:42:11.173Z,24.75
2022-12-29T14:44:54.477Z,25.75
2022-12-29T14:47:33.442Z,22.14
2022-12-29T14:50:02.243Z,24.45
2022-12-29T14:52:31.117Z,23.48
2022-12-29T14:55:16.352Z,23.65
2022-12-29T14:57:48.588Z,23.45
2022-12-29T15:00:21.259Z,23.75
2022-12-29T15:02:54.658Z,24.44
2022-12-29T15:05:31.488Z,23.16
2022-12-29T15:08:00.425Z,25.65
2022-12-29T15:10:36.925Z,23.64
2022-12-29T15:13:06.548Z,24.14
2022-12-29T15:15:39.783Z,24.87
2022-12-29T15:18:24.799Z,25.29
2022-12-29T15:21:06.201Z,25.29
2022-12-29T15:23:35.953Z,23.04
2022-12-29T15:26:06.895Z,23.46
2022-12-29T15:28:45.320Z,24.35
2022-12-29T15:31:29.759Z,25.21
2022-12-29T15:34:10.822Z,23.22
2022-12-29T15:36:40.540Z,25.85
2022-12-29T15:39:42.868Z,23.16
2022-12-29T15:42:49.676Z,28.68
2022-12-29T15:45:17.419Z,25.94
2022-12-29T15:47:49.767Z,27.45
2022-12-29T15:50:30.639Z,25.42
2022-12-29T15:52:58.831Z,24.03
2022-12-29T15:55:33.063Z,24.14
2022-12-29T15:58:01.955Z,23.42
2022-12-29T16:00:31.201Z,24.10
2022-12-29T16:03:01.939Z,25.14
2022-12-29T16:05:37.308Z,26.95
2022-12-29T16:08:05.064Z,23.15
2022-12-29T16:10:43.360Z,25.11
2022-12-29T16:13:36.865Z,22.88
2022-12-29T16:16:17.931Z,24.52
2022-12-29T16:18:46.124Z,24.89
2022-12-29T16:21:31.057Z,25.48
2022-12-29T16:24:03.280Z,26.04
2022-12-29T16:26:31.488Z,23.93
2022-12-29T16:29:01.163Z,22.96
2022-12-29T16:31:51.351Z,25.47
2022-12-29T16:34:29.236Z,23.07
2022-12-29T16:37:23.286Z,23.97
2022-12-29T16:39:50.292Z,22.48
2022-12-29T16:42:37.422Z,24.57
2022-12-29T16:45:20.557Z,24.72
2022-12-29T16:48:06.819Z,24.96
2022-12-29T16:50:42.855Z,26.06
2022-12-29T16:53:32.784Z,26.23
2022-12-29T16:56:06.577Z,25.21
2022-12-29T16:58:34.484Z,27.75
2022-12-29T17:01:03.947Z,25.94
2022-12-29T17:03:42.738Z,27.60
2022-12-29T17:06:17.528Z,24.89
2022-12-29T17:08:46.689Z,25.55
2022-12-29T17:11:59.261Z,25.78
2022-12-29T17:14:52.847Z,24.66
2022-12-29T17:17:24.812Z,24.33
2022-12-29T17:19:55.048Z,24.13
2022-12-29T17:22:27.830Z,27.09
2022-12-29T17:24:57.521Z,26.00
2022-12-29T17:27:34.507Z,24.81
2022-12-29T17:30:07.123Z,26.26
2022-12-29T17:32:34.661Z,23.68
2022-12-29T17:35:05.322Z,24.01
2022-12-29T17:37:37.877Z,24.37
2022-12-29T17:40:07.798Z,25.17
2022-12-29T17:42:38.621Z,25.98
2022-12-29T17:45:06.067Z,26.30
2022-12-29T17:47:33.544Z,25.65
2022-12-29T17:50:03.637Z,25.97
2022-12-29T17:52:33.128Z,25.48
2022-12-29T17:55:01.938Z,26.09
2022-12-29T17:57:28.712Z,24.55
2022-12-29T17:59:55.447Z,24.97
2022-12-29T18:02:27.121Z,26.06
2022-12-29T18:04:54.086Z,26.59
2022-12-29T18:07:22.370Z,24.42
2022-12-29T18:09:49.157Z,26.95
2022-12-29T18:12:39.359Z,25.47
2022-12-29T18:15:08.501Z,23.41
2022-12-29T18:17:35.273Z,24.74
2022-12-29T18:20:02.495Z,23.28
2022-12-29T18:22:30.214Z,24.88
2022-12-29T18:24:57.039Z,25.29
2022-12-29T18:27:23.899Z,25.65
2022-12-29T18:29:50.637Z,25.37
2022-12-29T18:32:18.757Z,25.32
2022-12-29T18:34:45.543Z,25.65
2022-12-29T18:37:13.110Z,25.33
2022-12-29T18:39:39.919Z,26.14
2022-12-29T18:42:07.797Z,23.92
2022-12-29T18:44:35.146Z,24.94
2022-12-29T18:47:02.697Z,27.09
2022-12-29T18:49:30.407Z,28.25
2022-12-29T18:51:57.414Z,25.31
2022-12-29T18:54:33.684Z,24.81
2022-12-29T18:57:00.563Z,25.46
2022-12-29T18:59:28.066Z,26.44
2022-12-29T19:01:54.896Z,25.06
2022-12-29T19:04:22.726Z,26.71
2022-12-29T19:06:49.758Z,25.78
2022-12-29T19:09:18.156Z,25.41
2022-12-29T19:11:45.607Z,25.04
2022-12-29T19:14:17.898Z,27.54
2022-12-29T19:16:50.002Z,24.79
2022-12-29T19:19:18.151Z,23.64
2022-12-29T19:21:45.735Z,25.42
2022-12-29T19:24:13.437Z,29.81
2022-12-29T19:26:40.578Z,29.39
2022-12-29T19:29:13.693Z,27.00
2022-12-29T19:31:40.570Z,29.46
2022-12-29T19:34:08.160Z,28.66
2022-12-29T19:36:35.172Z,29.26
2022-12-29T19:39:03.204Z,29.54
2022-12-29T19:41:29.977Z,27.38
2022-12-29T19:43:56.735Z,27.53
2022-12-29T19:46:24.598Z,26.45
2022-12-29T19:48:52.564Z,25.21
2022-12-29T19:51:19.802Z,28.02
2022-12-29T19:53:47.124Z,27.24
2022-12-29T19:56:14.454Z,27.60
2022-12-29T19:58:46.594Z,25.93
2022-12-29T20:01:19.886Z,26.90
2022-12-29T20:03:48.679Z,27.41
2022-12-29T20:06:17.236Z,28.10
2022-12-29T20:08:44.884Z,28.90
2022-12-29T20:11:16.149Z,28.49
2022-12-29T20:13:44.382Z,25.97
2022-12-29T20:16:20.685Z,25.64
2022-12-29T20:18:50.465Z,25.06
2022-12-29T20:21:20.277Z,25.73
2022-12-29T20:23:49.517Z,24.93
2022-12-29T20:26:23.537Z,23.30
2022-12-29T20:28:51.678Z,26.90
2022-12-29T20:31:26.755Z,23.49
2022-12-29T20:33:54.865Z,27.34
2022-12-29T20:36:26.254Z,28.60
2022-12-29T20:38:55.745Z,26.03
2022-12-29T20:41:23.664Z,25.54
2022-12-29T20:43:53.256Z,26.22
2022-12-29T20:46:24.186Z,27.68
2022-12-29T20:48:54.353Z,26.60
2022-12-29T20:51:21.158Z,25.01
2022-12-29T20:53:49.395Z,24.14
2022-12-29T20:56:20.509Z,25.91
2022-12-29T20:59:25.313Z,27.18
2022-12-29T21:01:36.726Z,26.83
2022-12-29T21:04:04.891Z,26.99
2022-12-29T21:06:32.670Z,25.45
2022-12-29T21:09:00.353Z,27.11
2022-12-29T21:11:28.839Z,28.64
2022-12-29T21:13:58.213Z,28.55
2022-12-29T21:16:29.086Z,26.97
2022-12-29T21:18:56.036Z,25.37
2022-12-29T21:21:25.279Z,24.33
2022-12-29T21:23:52.948Z,24.64
2022-12-29T21:26:23.615Z,24.51
2022-12-29T21:28:51.766Z,25.84
2022-12-29T21:31:33.418Z,24.37
2022-12-29T21:34:03.107Z,24.11
2022-12-29T21:36:30.723Z,24.06
2022-12-29T21:38:58.987Z,25.40
2022-12-29T21:41:26.535Z,23.67
2022-12-29T21:44:12.524Z,26.19
2022-12-29T21:46:42.023Z,26.48
2022-12-29T21:49:09.637Z,25.66
2022-12-29T21:51:52.366Z,25.96
2022-12-29T21:54:46.409Z,23.92
2022-12-29T21:57:36.830Z,23.32
2022-12-29T22:00:27.407Z,25.07
2022-12-29T22:03:22.178Z,24.27
2022-12-29T22:06:08.977Z,25.34
2022-12-29T22:08:55.830Z,28.01
2022-12-29T22:11:41.032Z,24.73
2022-12-29T22:14:07.868Z,25.86
2022-12-29T22:16:35.578Z,26.34
2022-12-29T22:19:02.539Z,26.48
2022-12-29T22:21:29.900Z,27.87
2022-12-29T22:23:56.662Z,30.25
2022-12-29T22:26:23.443Z,26.68
2022-12-29T22:28:52.546Z,25.88
2022-12-29T22:31:30.551Z,25.22
2022-12-29T22:33:59.755Z,23.74
2022-12-29T22:36:27.170Z,25.69
2022-12-29T22:38:54.233Z,26.49
2022-12-29T22:41:22.437Z,26.67
2022-12-29T22:43:49.202Z,24.78
2022-12-29T22:46:17.692Z,27.08
2022-12-29T22:48:44.849Z,25.62
2022-12-29T22:51:11.647Z,26.71
2022-12-29T22:53:39.612Z,26.97
2022-12-29T22:56:12.192Z,25.78
2022-12-29T22:58:47.535Z,26.76
2022-12-29T23:01:17.695Z,28.48
2022-12-29T23:03:45.107Z,26.55
2022-12-29T23:06:13.888Z,27.46
2022-12-29T23:08:40.796Z,28.12
2022-12-29T23:11:09.935Z,27.06
2022-12-29T23:13:37.867Z,24.96
2022-12-29T23:16:05.657Z,26.03
2022-12-29T23:18:32.842Z,28.63
2022-12-29T23:21:00.085Z,26.08
2022-12-29T23:23:49.150Z,25.58
2022-12-29T23:26:18.691Z,25.40
2022-12-29T23:28:45.871Z,27.21
2022-12-29T23:31:13.912Z,25.61
2022-12-29T23:33:41.003Z,26.47
2022-12-29T23:36:08.093Z,25.89
2022-12-29T23:38:35.915Z,28.31
2022-12-29T23:41:02.933Z,27.20
2022-12-29T23:43:29.658Z,27.89
2022-12-29T23:45:56.351Z,26.94
2022-12-29T23:48:23.212Z,28.72
2022-12-29T23:50:50.004Z,25.91
2022-12-29T23:53:18.049Z,26.90
2022-12-29T23:55:44.791Z,28.39
2022-12-29T23:58:11.530Z,27.11
